MSC Orchestra — 3EJF3 — position and weather

sailwx.info

Track history (hours):
 
Tides and Currents Weather Stations Pressure Air Temp Water Temp Dewpoint Dewpoint Depression Visibility Wind Speed Wind Dir Waves Ship Positions

MSC Orchestra

Last reported at 2014-Sep-02 23:33 UTC. Time now 2014-Sep-03 00:11 UTC.
Position N 59°41' E 024°12'.

Length 292 m; draft 7.8 m.

Type: Ship. MMSI: 372497000.

Date/timePositionNaut miles runAvg speedWind from/ knotsBaromVisibWave heightAir tempDewpointWater temp
2014-Sep-02 23:33N 59°41' E 024°12'1211.9
2014-Sep-02 22:33N 59°38' E 023°50'1212.4
2014-Sep-02 21:33N 59°34' E 023°26'1312.4
2014-Sep-02 20:32N 59°30' E 023°03'27512.9
2014-Sep-01 23:15N 55°28' E 018°58'1115.1
2014-Sep-01 22:33N 55°18' E 018°58'1514.9
2014-Sep-01 21:33N 55°03' E 018°58'1514.7
2014-Sep-01 20:33N 54°48' E 018°58'1514.7
2014-Sep-01 19:33N 54°34' E 018°52'11 9.5
2014-Sep-01 18:24N 54°32' E 018°33'0 0.0
2014-Sep-01 17:27N 54°32' E 018°33'0 0.0
2014-Sep-01 16:17N 54°32' E 018°33'0 0.0
2014-Sep-01 15:29N 54°32' E 018°33'0 0.0
2014-Sep-01 14:32N 54°32' E 018°33'0 0.0
2014-Sep-01 13:22N 54°32' E 018°33'0 0.0
2014-Sep-01 12:28N 54°32' E 018°33'0 0.0
2014-Sep-01 11:27N 54°32' E 018°33'0 0.4
2014-Sep-01 10:33N 54°32' E 018°34'10 9.9
2014-Sep-01 09:33N 54°34' E 018°50'1616.1
2014-Sep-01 08:33N 54°50' E 018°55'1716.7
2014-Sep-01 07:33N 54°58' E 018°30'1616.3
2014-Sep-01 06:33N 54°56' E 018°01'1716.6
2014-Sep-01 05:32N 54°54' E 017°32'2016.9
2014-Sep-01 04:21N 54°50' E 016°58'9917.0
2014-Aug-31 22:33N 54°39' E 014°08'1716.6
2014-Aug-31 21:33N 54°50' E 013°46'2317.1
2014-Aug-31 20:14N 55°04' E 013°15'1217.4
2014-Aug-31 19:33N 55°12' E 012°59'1615.6
2014-Aug-31 18:33N 55°22' E 012°38'1312.8
2014-Aug-31 17:33N 55°34' E 012°42'10 9.5
2014-Aug-31 16:33N 55°44' E 012°40'2 1.5
2014-Aug-31 15:31N 55°43' E 012°38'0 0.0
2014-Aug-31 14:31N 55°43' E 012°38'0 0.0
2014-Aug-31 13:34N 55°43' E 012°38'0 0.0
2014-Aug-31 12:33N 55°43' E 012°38'0 0.0
2014-Aug-31 11:33N 55°43' E 012°38'0 0.0
2014-Aug-31 10:29N 55°43' E 012°38'0 0.0
2014-Aug-31 09:32N 55°43' E 012°38'0 0.0
2014-Aug-31 08:31N 55°43' E 012°38'0 0.0
2014-Aug-31 07:31N 55°43' E 012°38'0 0.0
2014-Aug-31 06:30N 55°43' E 012°38'0 0.0
2014-Aug-31 05:33N 55°43' E 012°38'4 3.9
2014-Aug-31 04:34N 55°40' E 012°41'8 8.1
2014-Aug-31 03:34N 55°32' E 012°43'1111.1
2014-Aug-31 02:33N 55°21' E 012°39'1312.7
2014-Aug-31 01:34N 55°08' E 012°41'1313.4
2014-Aug-31 00:34N 54°55' E 012°46'1212.0
2014-Aug-30 23:33N 54°44' E 012°39'1313.0
2014-Aug-30 22:33N 54°36' E 012°21'1413.6
2014-Aug-30 21:33N 54°25' E 012°08'1414.2
2014-Aug-30 20:33N 54°25' E 011°43'52 2.7
2014-Aug-30 01:33N 55°12' E 011°06'3416.4
2014-Aug-29 23:28N 55°45' E 010°48'5216.8
2014-Aug-29 20:24N 56°29' E 011°35'1517.2
2014-Aug-29 19:33N 56°42' E 011°49'1616.3
2014-Aug-29 18:33N 56°58' E 011°43'1717.1
2014-Aug-29 17:33N 57°15' E 011°37'1717.2
2014-Aug-29 16:34N 57°32' E 011°36'1111.5
2014-Aug-29 15:33N 57°41' E 011°49'1 0.8
2014-Aug-29 14:32N 57°42' E 011°49'0 0.0
2014-Aug-29 13:31N 57°42' E 011°49'0 0.0
2014-Aug-29 12:31N 57°42' E 011°49'0 0.0
2014-Aug-29 11:33N 57°42' E 011°49'0 0.0
2014-Aug-29 10:33N 57°42' E 011°49'0 0.0
2014-Aug-29 09:30N 57°42' E 011°49'0 0.0
2014-Aug-29 08:29N 57°42' E 011°49'0 0.0
2014-Aug-29 07:32N 57°42' E 011°49'0 0.0
2014-Aug-29 06:31N 57°42' E 011°49'1 1.2
2014-Aug-29 05:33N 57°41' E 011°48'1010.5
2014-Aug-29 04:33N 57°33' E 011°34'1615.9
2014-Aug-29 03:33N 57°43' E 011°11'1717.5
2014-Aug-29 02:33N 57°55' E 010°47'1616.2
2014-Aug-29 01:33N 57°56' E 010°16'2318.1
2014-Aug-29 00:18N 57°52' E 009°34'1518.5
2014-Aug-28 23:30N 57°49' E 009°07'2119.0
2014-Aug-28 22:23N 57°45' E 008°28'1719.9
2014-Aug-28 21:31N 57°42' E 007°56'7318.4
2014-Aug-28 17:33N 58°05' E 005°46'2319.9
2014-Aug-28 16:24N 58°20' E 005°13'1619.2
2014-Aug-28 15:33N 58°36' E 005°17'1818.2
2014-Aug-28 14:33N 58°53' E 005°31'9 8.6
2014-Aug-28 13:33N 58°60' E 005°42'1 1.5
2014-Aug-28 12:33N 58°58' E 005°44'0 0.0
2014-Aug-28 11:33N 58°58' E 005°44'0 0.0
2014-Aug-28 10:32N 58°58' E 005°44'0 0.0
2014-Aug-28 09:32N 58°58' E 005°44'0 0.0
2014-Aug-28 08:31N 58°58' E 005°44'0 0.0
2014-Aug-28 07:31N 58°58' E 005°44'0 0.1
2014-Aug-28 06:33N 58°59' E 005°44'5 5.3
2014-Aug-28 05:34N 59°02' E 005°37'1010.0
2014-Aug-28 04:33N 59°04' E 005°17'  
2014-Aug-25 03:33N 58°42' E 005°04'1514.3
2014-Aug-25 02:31N 58°29' E 005°16'1313.7
2014-Aug-25 01:33N 58°18' E 005°31'1413.9
2014-Aug-25 00:33N 58°09' E 005°51'7413.5
2014-Aug-24 19:04N 57°56' E 008°09'9 0.9
2014-Aug-24 09:33N 58°04' E 008°15'2221.7
2014-Aug-24 08:33N 58°10' E 008°54'3919.6
2014-Aug-24 06:33N 57°57' E 010°05'1919.5
2014-Aug-24 05:33N 57°50' E 010°38'2019.6
2014-Aug-24 04:33N 57°37' E 011°07'2019.8
2014-Aug-24 03:33N 57°22' E 011°30'  
Track history (hours):
 
Tides and Currents Weather Stations Pressure Air Temp Water Temp Dewpoint Dewpoint Depression Visibility Wind Speed Wind Dir Waves Ship Positions

MSC Orchestra

Last reported at 2014-Sep-02 23:33 UTC. Time now 2014-Sep-03 00:11 UTC.
Position N 59°41' E 024°12'.

Length 292 m; draft 7.8 m.

Type: Ship. MMSI: 372497000.

Date/timePositionNaut miles runAvg speedWind from/ knotsBaromVisibWave heightAir tempDewpointWater temp
2014-Sep-02 23:33N 59°41' E 024°12'1211.9
2014-Sep-02 22:33N 59°38' E 023°50'1212.4
2014-Sep-02 21:33N 59°34' E 023°26'1312.4
2014-Sep-02 20:32N 59°30' E 023°03'27512.9
2014-Sep-01 23:15N 55°28' E 018°58'1115.1
2014-Sep-01 22:33N 55°18' E 018°58'1514.9
2014-Sep-01 21:33N 55°03' E 018°58'1514.7
2014-Sep-01 20:33N 54°48' E 018°58'1514.7
2014-Sep-01 19:33N 54°34' E 018°52'11 9.5
2014-Sep-01 18:24N 54°32' E 018°33'0 0.0
2014-Sep-01 17:27N 54°32' E 018°33'0 0.0
2014-Sep-01 16:17N 54°32' E 018°33'0 0.0
2014-Sep-01 15:29N 54°32' E 018°33'0 0.0
2014-Sep-01 14:32N 54°32' E 018°33'0 0.0
2014-Sep-01 13:22N 54°32' E 018°33'0 0.0
2014-Sep-01 12:28N 54°32' E 018°33'0 0.0
2014-Sep-01 11:27N 54°32' E 018°33'0 0.4
2014-Sep-01 10:33N 54°32' E 018°34'10 9.9
2014-Sep-01 09:33N 54°34' E 018°50'1616.1
2014-Sep-01 08:33N 54°50' E 018°55'1716.7
2014-Sep-01 07:33N 54°58' E 018°30'1616.3
2014-Sep-01 06:33N 54°56' E 018°01'1716.6
2014-Sep-01 05:32N 54°54' E 017°32'2016.9
2014-Sep-01 04:21N 54°50' E 016°58'9917.0
2014-Aug-31 22:33N 54°39' E 014°08'1716.6
2014-Aug-31 21:33N 54°50' E 013°46'2317.1
2014-Aug-31 20:14N 55°04' E 013°15'1217.4
2014-Aug-31 19:33N 55°12' E 012°59'1615.6
2014-Aug-31 18:33N 55°22' E 012°38'1312.8
2014-Aug-31 17:33N 55°34' E 012°42'10 9.5
2014-Aug-31 16:33N 55°44' E 012°40'2 1.5
2014-Aug-31 15:31N 55°43' E 012°38'0 0.0
2014-Aug-31 14:31N 55°43' E 012°38'0 0.0
2014-Aug-31 13:34N 55°43' E 012°38'0 0.0
2014-Aug-31 12:33N 55°43' E 012°38'0 0.0
2014-Aug-31 11:33N 55°43' E 012°38'0 0.0
2014-Aug-31 10:29N 55°43' E 012°38'0 0.0
2014-Aug-31 09:32N 55°43' E 012°38'0 0.0
2014-Aug-31 08:31N 55°43' E 012°38'0 0.0
2014-Aug-31 07:31N 55°43' E 012°38'0 0.0
2014-Aug-31 06:30N 55°43' E 012°38'0 0.0
2014-Aug-31 05:33N 55°43' E 012°38'4 3.9
2014-Aug-31 04:34N 55°40' E 012°41'8 8.1
2014-Aug-31 03:34N 55°32' E 012°43'1111.1
2014-Aug-31 02:33N 55°21' E 012°39'1312.7
2014-Aug-31 01:34N 55°08' E 012°41'1313.4
2014-Aug-31 00:34N 54°55' E 012°46'1212.0
2014-Aug-30 23:33N 54°44' E 012°39'1313.0
2014-Aug-30 22:33N 54°36' E 012°21'1413.6
2014-Aug-30 21:33N 54°25' E 012°08'1414.2
2014-Aug-30 20:33N 54°25' E 011°43'52 2.7
2014-Aug-30 01:33N 55°12' E 011°06'3416.4
2014-Aug-29 23:28N 55°45' E 010°48'5216.8
2014-Aug-29 20:24N 56°29' E 011°35'1517.2
2014-Aug-29 19:33N 56°42' E 011°49'1616.3
2014-Aug-29 18:33N 56°58' E 011°43'1717.1
2014-Aug-29 17:33N 57°15' E 011°37'1717.2
2014-Aug-29 16:34N 57°32' E 011°36'1111.5
2014-Aug-29 15:33N 57°41' E 011°49'1 0.8
2014-Aug-29 14:32N 57°42' E 011°49'0 0.0
2014-Aug-29 13:31N 57°42' E 011°49'0 0.0
2014-Aug-29 12:31N 57°42' E 011°49'0 0.0
2014-Aug-29 11:33N 57°42' E 011°49'0 0.0
2014-Aug-29 10:33N 57°42' E 011°49'0 0.0
2014-Aug-29 09:30N 57°42' E 011°49'0 0.0
2014-Aug-29 08:29N 57°42' E 011°49'0 0.0
2014-Aug-29 07:32N 57°42' E 011°49'0 0.0
2014-Aug-29 06:31N 57°42' E 011°49'1 1.2
2014-Aug-29 05:33N 57°41' E 011°48'1010.5
2014-Aug-29 04:33N 57°33' E 011°34'1615.9
2014-Aug-29 03:33N 57°43' E 011°11'1717.5
2014-Aug-29 02:33N 57°55' E 010°47'1616.2
2014-Aug-29 01:33N 57°56' E 010°16'2318.1
2014-Aug-29 00:18N 57°52' E 009°34'1518.5
2014-Aug-28 23:30N 57°49' E 009°07'2119.0
2014-Aug-28 22:23N 57°45' E 008°28'1719.9
2014-Aug-28 21:31N 57°42' E 007°56'7318.4
2014-Aug-28 17:33N 58°05' E 005°46'2319.9
2014-Aug-28 16:24N 58°20' E 005°13'1619.2
2014-Aug-28 15:33N 58°36' E 005°17'1818.2
2014-Aug-28 14:33N 58°53' E 005°31'9 8.6
2014-Aug-28 13:33N 58°60' E 005°42'1 1.5
2014-Aug-28 12:33N 58°58' E 005°44'0 0.0
2014-Aug-28 11:33N 58°58' E 005°44'0 0.0
2014-Aug-28 10:32N 58°58' E 005°44'0 0.0
2014-Aug-28 09:32N 58°58' E 005°44'0 0.0
2014-Aug-28 08:31N 58°58' E 005°44'0 0.0
2014-Aug-28 07:31N 58°58' E 005°44'0 0.1
2014-Aug-28 06:33N 58°59' E 005°44'5 5.3
2014-Aug-28 05:34N 59°02' E 005°37'1010.0
2014-Aug-28 04:33N 59°04' E 005°17'  
2014-Aug-25 03:33N 58°42' E 005°04'1514.3
2014-Aug-25 02:31N 58°29' E 005°16'1313.7
2014-Aug-25 01:33N 58°18' E 005°31'1413.9
2014-Aug-25 00:33N 58°09' E 005°51'7413.5
2014-Aug-24 19:04N 57°56' E 008°09'9 0.9
2014-Aug-24 09:33N 58°04' E 008°15'2221.7
2014-Aug-24 08:33N 58°10' E 008°54'3919.6
2014-Aug-24 06:33N 57°57' E 010°05'1919.5
2014-Aug-24 05:33N 57°50' E 010°38'2019.6
2014-Aug-24 04:33N 57°37' E 011°07'2019.8
2014-Aug-24 03:33N 57°22' E 011°30'  

Dump ship's entire track history